sensor_id;sensor_type;location;lat;lon;timestamp;temperature;humidity
65864;SHT30;52639;51.180;20.460;2023-09-07T00:01:59;9.83;87.24
65864;SHT30;52639;51.180;20.460;2023-09-07T00:06:02;9.91;87.50
65864;SHT30;52639;51.180;20.460;2023-09-07T00:10:08;9.93;87.19
65864;SHT30;52639;51.180;20.460;2023-09-07T00:14:11;9.91;87.28
65864;SHT30;52639;51.180;20.460;2023-09-07T00:18:14;9.95;87.00
65864;SHT30;52639;51.180;20.460;2023-09-07T00:22:17;9.86;86.94
65864;SHT30;52639;51.180;20.460;2023-09-07T00:26:22;9.83;86.94
65864;SHT30;52639;51.180;20.460;2023-09-07T00:30:25;9.79;87.22
65864;SHT30;52639;51.180;20.460;2023-09-07T00:34:28;9.70;87.07
65864;SHT30;52639;51.180;20.460;2023-09-07T00:38:31;9.60;87.31
65864;SHT30;52639;51.180;20.460;2023-09-07T00:42:36;9.63;87.53
65864;SHT30;52639;51.180;20.460;2023-09-07T00:46:39;9.61;87.31
65864;SHT30;52639;51.180;20.460;2023-09-07T00:50:42;9.37;87.38
65864;SHT30;52639;51.180;20.460;2023-09-07T00:54:46;9.42;87.90
65864;SHT30;52639;51.180;20.460;2023-09-07T00:58:51;9.50;87.81
65864;SHT30;52639;51.180;20.460;2023-09-07T01:02:55;9.56;87.74
65864;SHT30;52639;51.180;20.460;2023-09-07T01:07:02;9.53;87.43
65864;SHT30;52639;51.180;20.460;2023-09-07T01:11:13;9.54;87.75
65864;SHT30;52639;51.180;20.460;2023-09-07T01:15:18;9.49;87.73
65864;SHT30;52639;51.180;20.460;2023-09-07T01:19:21;9.51;87.98
65864;SHT30;52639;51.180;20.460;2023-09-07T01:23:26;9.36;87.51
65864;SHT30;52639;51.180;20.460;2023-09-07T01:27:29;9.18;87.93
65864;SHT30;52639;51.180;20.460;2023-09-07T01:31:35;9.23;87.98
65864;SHT30;52639;51.180;20.460;2023-09-07T01:35:39;9.20;87.90
65864;SHT30;52639;51.180;20.460;2023-09-07T01:39:45;9.22;87.90
65864;SHT30;52639;51.180;20.460;2023-09-07T01:43:49;9.22;87.90
65864;SHT30;52639;51.180;20.460;2023-09-07T01:47:53;9.27;88.65
65864;SHT30;52639;51.180;20.460;2023-09-07T01:51:56;9.25;88.11
65864;SHT30;52639;51.180;20.460;2023-09-07T01:56:01;9.20;87.83
65864;SHT30;52639;51.180;20.460;2023-09-07T02:00:06;9.18;88.21
65864;SHT30;52639;51.180;20.460;2023-09-07T02:04:37;9.09;88.14
65864;SHT30;52639;51.180;20.460;2023-09-07T02:08:40;9.02;88.31
65864;SHT30;52639;51.180;20.460;2023-09-07T02:12:46;9.02;88.12
65864;SHT30;52639;51.180;20.460;2023-09-07T02:16:49;8.91;88.54
65864;SHT30;52639;51.180;20.460;2023-09-07T02:20:54;8.93;88.58
65864;SHT30;52639;51.180;20.460;2023-09-07T02:24:57;8.91;88.39
65864;SHT30;52639;51.180;20.460;2023-09-07T02:29:01;8.85;88.39
65864;SHT30;52639;51.180;20.460;2023-09-07T02:33:08;8.84;88.52
65864;SHT30;52639;51.180;20.460;2023-09-07T02:37:11;8.82;88.52
65864;SHT30;52639;51.180;20.460;2023-09-07T02:41:17;8.75;88.20
65864;SHT30;52639;51.180;20.460;2023-09-07T02:45:36;8.57;88.43
65864;SHT30;52639;51.180;20.460;2023-09-07T02:49:41;8.60;88.77
65864;SHT30;52639;51.180;20.460;2023-09-07T02:53:45;8.61;88.73
65864;SHT30;52639;51.180;20.460;2023-09-07T02:57:52;8.67;88.91
65864;SHT30;52639;51.180;20.460;2023-09-07T03:01:57;8.65;88.77
65864;SHT30;52639;51.180;20.460;2023-09-07T03:06:09;8.67;89.12
65864;SHT30;52639;51.180;20.460;2023-09-07T03:10:20;8.65;89.11
65864;SHT30;52639;51.180;20.460;2023-09-07T03:14:23;8.61;89.11
65864;SHT30;52639;51.180;20.460;2023-09-07T03:18:29;8.42;88.65
65864;SHT30;52639;51.180;20.460;2023-09-07T03:22:32;8.40;89.05
65864;SHT30;52639;51.180;20.460;2023-09-07T03:26:37;8.42;89.02
65864;SHT30;52639;51.180;20.460;2023-09-07T03:30:41;8.44;88.76
65864;SHT30;52639;51.180;20.460;2023-09-07T03:34:50;8.38;88.55
65864;SHT30;52639;51.180;20.460;2023-09-07T03:38:53;8.30;88.70
65864;SHT30;52639;51.180;20.460;2023-09-07T03:43:02;8.27;88.75
65864;SHT30;52639;51.180;20.460;2023-09-07T03:47:05;8.28;89.02
65864;SHT30;52639;51.180;20.460;2023-09-07T03:51:11;8.33;89.02
65864;SHT30;52639;51.180;20.460;2023-09-07T03:55:14;8.37;88.96
65864;SHT30;52639;51.180;20.460;2023-09-07T03:59:28;8.34;88.91
65864;SHT30;52639;51.180;20.460;2023-09-07T04:03:34;8.33;89.00
65864;SHT30;52639;51.180;20.460;2023-09-07T04:07:39;8.36;88.83
65864;SHT30;52639;51.180;20.460;2023-09-07T04:11:43;8.41;89.01
65864;SHT30;52639;51.180;20.460;2023-09-07T04:15:49;8.40;88.69
65864;SHT30;52639;51.180;20.460;2023-09-07T04:19:54;8.51;88.84
65864;SHT30;52639;51.180;20.460;2023-09-07T04:23:59;8.60;88.68
65864;SHT30;52639;51.180;20.460;2023-09-07T04:28:02;8.69;88.47
65864;SHT30;52639;51.180;20.460;2023-09-07T04:32:06;8.82;88.37
65864;SHT30;52639;51.180;20.460;2023-09-07T04:36:09;8.91;88.18
65864;SHT30;52639;51.180;20.460;2023-09-07T04:40:14;9.08;88.27
65864;SHT30;52639;51.180;20.460;2023-09-07T04:44:19;9.22;87.89
65864;SHT30;52639;51.180;20.460;2023-09-07T05:02:01;10.42;87.37
65864;SHT30;52639;51.180;20.460;2023-09-07T05:06:05;10.85;86.42
65864;SHT30;52639;51.180;20.460;2023-09-07T05:10:11;11.06;86.04
65864;SHT30;52639;51.180;20.460;2023-09-07T05:14:16;11.34;85.97
65864;SHT30;52639;51.180;20.460;2023-09-07T05:18:26;11.56;85.78
65864;SHT30;52639;51.180;20.460;2023-09-07T05:22:36;11.90;85.62
65864;SHT30;52639;51.180;20.460;2023-09-07T05:26:42;12.17;85.38
65864;SHT30;52639;51.180;20.460;2023-09-07T05:30:50;12.50;85.10
65864;SHT30;52639;51.180;20.460;2023-09-07T05:34:55;12.88;84.44
65864;SHT30;52639;51.180;20.460;2023-09-07T05:38:58;13.50;83.62
65864;SHT30;52639;51.180;20.460;2023-09-07T05:43:03;14.92;81.37
65864;SHT30;52639;51.180;20.460;2023-09-07T05:47:06;17.72;76.38
65864;SHT30;52639;51.180;20.460;2023-09-07T05:51:11;20.84;69.95
65864;SHT30;52639;51.180;20.460;2023-09-07T05:55:14;22.46;66.99
65864;SHT30;52639;51.180;20.460;2023-09-07T05:59:17;23.61;65.37
65864;SHT30;52639;51.180;20.460;2023-09-07T06:03:21;25.08;63.33
65864;SHT30;52639;51.180;20.460;2023-09-07T06:07:25;25.88;62.32
65864;SHT30;52639;51.180;20.460;2023-09-07T06:11:31;26.94;60.82
65864;SHT30;52639;51.180;20.460;2023-09-07T06:15:34;28.37;58.58
65864;SHT30;52639;51.180;20.460;2023-09-07T06:19:37;29.52;56.77
65864;SHT30;52639;51.180;20.460;2023-09-07T06:23:43;30.50;55.49
65864;SHT30;52639;51.180;20.460;2023-09-07T06:27:46;30.73;55.51
65864;SHT30;52639;51.180;20.460;2023-09-07T06:31:49;31.28;54.84
65864;SHT30;52639;51.180;20.460;2023-09-07T06:35:53;32.03;53.42
65864;SHT30;52639;51.180;20.460;2023-09-07T06:39:59;32.16;53.07
65864;SHT30;52639;51.180;20.460;2023-09-07T06:44:03;32.83;51.83
65864;SHT30;52639;51.180;20.460;2023-09-07T06:48:06;33.15;50.80
65864;SHT30;52639;51.180;20.460;2023-09-07T06:52:09;34.37;49.07
65864;SHT30;52639;51.180;20.460;2023-09-07T06:56:13;34.08;49.10
65864;SHT30;52639;51.180;20.460;2023-09-07T07:00:16;34.19;49.33
65864;SHT30;52639;51.180;20.460;2023-09-07T07:04:20;34.19;48.99
65864;SHT30;52639;51.180;20.460;2023-09-07T07:08:23;34.33;48.68
65864;SHT30;52639;51.180;20.460;2023-09-07T07:12:28;34.67;47.68
65864;SHT30;52639;51.180;20.460;2023-09-07T07:16:31;34.50;48.89
65864;SHT30;52639;51.180;20.460;2023-09-07T07:20:34;34.66;48.31
65864;SHT30;52639;51.180;20.460;2023-09-07T07:24:37;34.76;48.50
65864;SHT30;52639;51.180;20.460;2023-09-07T07:28:41;34.64;48.22
65864;SHT30;52639;51.180;20.460;2023-09-07T07:32:44;34.50;48.59
65864;SHT30;52639;51.180;20.460;2023-09-07T07:36:47;33.65;50.15
65864;SHT30;52639;51.180;20.460;2023-09-07T07:40:49;34.19;48.90
65864;SHT30;52639;51.180;20.460;2023-09-07T07:44:55;33.81;48.83
65864;SHT30;52639;51.180;20.460;2023-09-07T07:48:58;33.72;49.22
65864;SHT30;52639;51.180;20.460;2023-09-07T07:53:01;33.15;50.19
65864;SHT30;52639;51.180;20.460;2023-09-07T07:57:05;33.24;49.98
65864;SHT30;52639;51.180;20.460;2023-09-07T08:01:18;32.86;50.59
65864;SHT30;52639;51.180;20.460;2023-09-07T08:05:21;33.50;49.77
65864;SHT30;52639;51.180;20.460;2023-09-07T08:09:24;32.43;51.12
65864;SHT30;52639;51.180;20.460;2023-09-07T08:13:27;32.19;50.38
65864;SHT30;52639;51.180;20.460;2023-09-07T08:17:32;32.77;48.96
65864;SHT30;52639;51.180;20.460;2023-09-07T08:21:35;32.26;49.61
65864;SHT30;52639;51.180;20.460;2023-09-07T08:25:39;31.48;49.70
65864;SHT30;52639;51.180;20.460;2023-09-07T08:29:46;31.75;48.74
65864;SHT30;52639;51.180;20.460;2023-09-07T08:33:54;32.32;46.64
65864;SHT30;52639;51.180;20.460;2023-09-07T08:37:57;30.19;48.75
65864;SHT30;52639;51.180;20.460;2023-09-07T08:42:02;30.06;47.76
65864;SHT30;52639;51.180;20.460;2023-09-07T08:46:12;29.78;47.08
65864;SHT30;52639;51.180;20.460;2023-09-07T08:50:18;30.97;45.15
65864;SHT30;52639;51.180;20.460;2023-09-07T08:54:22;29.52;46.90
65864;SHT30;52639;51.180;20.460;2023-09-07T08:58:26;29.68;46.36
65864;SHT30;52639;51.180;20.460;2023-09-07T09:02:28;30.44;45.06
65864;SHT30;52639;51.180;20.460;2023-09-07T09:06:33;28.86;47.85
65864;SHT30;52639;51.180;20.460;2023-09-07T09:10:38;29.68;46.26
65864;SHT30;52639;51.180;20.460;2023-09-07T09:14:42;28.90;47.91
65864;SHT30;52639;51.180;20.460;2023-09-07T09:18:50;26.79;50.58
65864;SHT30;52639;51.180;20.460;2023-09-07T09:22:55;26.37;50.41
65864;SHT30;52639;51.180;20.460;2023-09-07T09:26:58;26.50;49.94
65864;SHT30;52639;51.180;20.460;2023-09-07T09:31:02;25.75;52.26
65864;SHT30;52639;51.180;20.460;2023-09-07T09:35:07;26.64;50.33
65864;SHT30;52639;51.180;20.460;2023-09-07T09:39:21;27.63;48.73
65864;SHT30;52639;51.180;20.460;2023-09-07T09:43:24;27.55;49.13
65864;SHT30;52639;51.180;20.460;2023-09-07T09:47:28;28.00;47.85
65864;SHT30;52639;51.180;20.460;2023-09-07T09:51:32;27.55;48.25
65864;SHT30;52639;51.180;20.460;2023-09-07T09:55:37;28.57;45.93
65864;SHT30;52639;51.180;20.460;2023-09-07T09:59:41;27.54;47.03
65864;SHT30;52639;51.180;20.460;2023-09-07T10:03:47;28.21;46.31
65864;SHT30;52639;51.180;20.460;2023-09-07T10:07:50;28.30;46.12
65864;SHT30;52639;51.180;20.460;2023-09-07T10:11:58;27.82;46.58
65864;SHT30;52639;51.180;20.460;2023-09-07T10:16:02;27.25;47.49
65864;SHT30;52639;51.180;20.460;2023-09-07T10:20:09;27.58;47.34
65864;SHT30;52639;51.180;20.460;2023-09-07T10:24:23;28.41;45.68
65864;SHT30;52639;51.180;20.460;2023-09-07T10:28:31;28.17;46.47
65864;SHT30;52639;51.180;20.460;2023-09-07T10:32:38;27.73;47.66
65864;SHT30;52639;51.180;20.460;2023-09-07T10:36:42;27.58;47.58
65864;SHT30;52639;51.180;20.460;2023-09-07T10:40:45;27.78;47.36
65864;SHT30;52639;51.180;20.460;2023-09-07T10:44:49;27.56;47.72
65864;SHT30;52639;51.180;20.460;2023-09-07T10:48:53;27.82;47.65
65864;SHT30;52639;51.180;20.460;2023-09-07T10:52:57;27.39;48.25
65864;SHT30;52639;51.180;20.460;2023-09-07T10:57:08;27.27;48.07
65864;SHT30;52639;51.180;20.460;2023-09-07T11:01:14;27.31;48.05
65864;SHT30;52639;51.180;20.460;2023-09-07T11:05:17;27.15;48.39
65864;SHT30;52639;51.180;20.460;2023-09-07T11:09:20;26.74;49.06
65864;SHT30;52639;51.180;20.460;2023-09-07T11:13:24;27.48;47.83
65864;SHT30;52639;51.180;20.460;2023-09-07T11:17:28;26.51;49.46
65864;SHT30;52639;51.180;20.460;2023-09-07T11:21:31;25.90;50.45
65864;SHT30;52639;51.180;20.460;2023-09-07T11:25:36;25.71;50.65
65864;SHT30;52639;51.180;20.460;2023-09-07T11:29:40;25.51;50.79
65864;SHT30;52639;51.180;20.460;2023-09-07T11:33:46;26.00;49.84
65864;SHT30;52639;51.180;20.460;2023-09-07T11:37:52;26.12;49.68
65864;SHT30;52639;51.180;20.460;2023-09-07T11:41:55;26.29;49.22
65864;SHT30;52639;51.180;20.460;2023-09-07T11:45:59;26.65;48.92
65864;SHT30;52639;51.180;20.460;2023-09-07T11:50:07;26.94;48.69
65864;SHT30;52639;51.180;20.460;2023-09-07T11:54:10;25.99;50.48
65864;SHT30;52639;51.180;20.460;2023-09-07T11:58:13;25.68;50.78
65864;SHT30;52639;51.180;20.460;2023-09-07T12:02:16;25.76;50.87
65864;SHT30;52639;51.180;20.460;2023-09-07T12:06:20;25.69;50.78
65864;SHT30;52639;51.180;20.460;2023-09-07T12:10:24;25.21;51.67
65864;SHT30;52639;51.180;20.460;2023-09-07T12:14:27;25.14;51.63
65864;SHT30;52639;51.180;20.460;2023-09-07T12:18:35;25.32;51.52
65864;SHT30;52639;51.180;20.460;2023-09-07T12:22:47;26.26;49.69
65864;SHT30;52639;51.180;20.460;2023-09-07T12:27:15;25.85;50.70
65864;SHT30;52639;51.180;20.460;2023-09-07T12:31:52;24.97;52.74
65864;SHT30;52639;51.180;20.460;2023-09-07T12:36:10;24.64;53.27
65864;SHT30;52639;51.180;20.460;2023-09-07T12:40:35;24.57;53.34
65864;SHT30;52639;51.180;20.460;2023-09-07T12:45:12;25.14;52.63
65864;SHT30;52639;51.180;20.460;2023-09-07T12:50:13;25.81;51.24
65864;SHT30;52639;51.180;20.460;2023-09-07T12:54:46;26.65;49.40
65864;SHT30;52639;51.180;20.460;2023-09-07T13:04:13;27.00;49.40
65864;SHT30;52639;51.180;20.460;2023-09-07T13:08:35;26.46;49.99
65864;SHT30;52639;51.180;20.460;2023-09-07T13:12:41;25.39;51.66
65864;SHT30;52639;51.180;20.460;2023-09-07T13:16:44;24.84;52.62
65864;SHT30;52639;51.180;20.460;2023-09-07T13:21:16;24.91;52.53
65864;SHT30;52639;51.180;20.460;2023-09-07T13:25:24;24.95;52.45
65864;SHT30;52639;51.180;20.460;2023-09-07T13:29:28;25.30;51.71
65864;SHT30;52639;51.180;20.460;2023-09-07T13:33:34;25.48;51.06
65864;SHT30;52639;51.180;20.460;2023-09-07T13:37:46;25.69;50.37
65864;SHT30;52639;51.180;20.460;2023-09-07T13:41:50;25.90;50.02
65864;SHT30;52639;51.180;20.460;2023-09-07T13:45:53;26.06;49.81
65864;SHT30;52639;51.180;20.460;2023-09-07T13:49:57;26.02;50.05
65864;SHT30;52639;51.180;20.460;2023-09-07T13:54:13;25.95;49.57
65864;SHT30;52639;51.180;20.460;2023-09-07T13:58:18;26.09;49.58
65864;SHT30;52639;51.180;20.460;2023-09-07T14:02:27;25.89;49.80
65864;SHT30;52639;51.180;20.460;2023-09-07T14:06:31;25.89;49.94
65864;SHT30;52639;51.180;20.460;2023-09-07T14:10:46;25.62;50.51
65864;SHT30;52639;51.180;20.460;2023-09-07T14:15:16;25.24;51.19
65864;SHT30;52639;51.180;20.460;2023-09-07T14:19:21;25.10;51.62
65864;SHT30;52639;51.180;20.460;2023-09-07T14:23:33;25.14;51.96
65864;SHT30;52639;51.180;20.460;2023-09-07T14:32:22;25.15;51.68
65864;SHT30;52639;51.180;20.460;2023-09-07T14:36:36;25.24;51.23
65864;SHT30;52639;51.180;20.460;2023-09-07T14:41:03;25.20;51.05
65864;SHT30;52639;51.180;20.460;2023-09-07T14:45:21;25.15;50.97
65864;SHT30;52639;51.180;20.460;2023-09-07T14:49:32;25.20;50.83
65864;SHT30;52639;51.180;20.460;2023-09-07T14:53:41;25.14;51.09
65864;SHT30;52639;51.180;20.460;2023-09-07T14:57:49;25.01;51.38
65864;SHT30;52639;51.180;20.460;2023-09-07T15:02:07;25.00;51.12
65864;SHT30;52639;51.180;20.460;2023-09-07T15:06:25;24.86;50.99
65864;SHT30;52639;51.180;20.460;2023-09-07T15:10:31;24.71;51.43
65864;SHT30;52639;51.180;20.460;2023-09-07T15:14:42;24.55;51.70
65864;SHT30;52639;51.180;20.460;2023-09-07T15:18:47;24.47;51.65
65864;SHT30;52639;51.180;20.460;2023-09-07T15:22:52;24.26;52.05
65864;SHT30;52639;51.180;20.460;2023-09-07T15:26:55;24.17;52.07
65864;SHT30;52639;51.180;20.460;2023-09-07T15:30:58;23.98;52.43
65864;SHT30;52639;51.180;20.460;2023-09-07T15:35:02;23.88;52.54
65864;SHT30;52639;51.180;20.460;2023-09-07T15:39:09;23.48;53.61
65864;SHT30;52639;51.180;20.460;2023-09-07T15:43:13;23.42;53.79
65864;SHT30;52639;51.180;20.460;2023-09-07T15:47:19;23.22;54.19
65864;SHT30;52639;51.180;20.460;2023-09-07T15:51:25;22.49;56.11
65864;SHT30;52639;51.180;20.460;2023-09-07T15:55:31;22.60;55.74
65864;SHT30;52639;51.180;20.460;2023-09-07T15:59:36;22.46;56.03
65864;SHT30;52639;51.180;20.460;2023-09-07T16:03:40;22.35;56.32
65864;SHT30;52639;51.180;20.460;2023-09-07T16:07:45;21.66;58.27
65864;SHT30;52639;51.180;20.460;2023-09-07T16:11:54;21.01;60.49
65864;SHT30;52639;51.180;20.460;2023-09-07T16:16:00;20.39;62.24
65864;SHT30;52639;51.180;20.460;2023-09-07T16:20:08;19.93;63.65
65864;SHT30;52639;51.180;20.460;2023-09-07T16:24:12;19.55;64.39
65864;SHT30;52639;51.180;20.460;2023-09-07T16:28:18;19.38;65.37
65864;SHT30;52639;51.180;20.460;2023-09-07T16:32:24;19.14;65.88
65864;SHT30;52639;51.180;20.460;2023-09-07T16:36:28;19.00;66.44
65864;SHT30;52639;51.180;20.460;2023-09-07T16:40:35;18.76;67.21
65864;SHT30;52639;51.180;20.460;2023-09-07T16:44:45;18.59;68.02
65864;SHT30;52639;51.180;20.460;2023-09-07T16:48:49;18.74;68.01
65864;SHT30;52639;51.180;20.460;2023-09-07T16:52:53;18.26;69.43
65864;SHT30;52639;51.180;20.460;2023-09-07T16:57:00;17.99;70.61
65864;SHT30;52639;51.180;20.460;2023-09-07T17:01:09;17.78;71.53
65864;SHT30;52639;51.180;20.460;2023-09-07T17:05:13;17.58;72.08
65864;SHT30;52639;51.180;20.460;2023-09-07T17:09:32;17.74;71.88
65864;SHT30;52639;51.180;20.460;2023-09-07T17:13:38;17.54;72.33
65864;SHT30;52639;51.180;20.460;2023-09-07T17:17:48;17.11;73.60
65864;SHT30;52639;51.180;20.460;2023-09-07T17:21:58;16.76;74.13
65864;SHT30;52639;51.180;20.460;2023-09-07T17:26:02;16.43;74.73
65864;SHT30;52639;51.180;20.460;2023-09-07T17:30:07;16.25;75.21
65864;SHT30;52639;51.180;20.460;2023-09-07T17:34:17;16.36;75.06
65864;SHT30;52639;51.180;20.460;2023-09-07T17:38:21;16.51;74.45
65864;SHT30;52639;51.180;20.460;2023-09-07T17:42:26;16.56;74.51
65864;SHT30;52639;51.180;20.460;2023-09-07T17:46:30;16.48;75.00
65864;SHT30;52639;51.180;20.460;2023-09-07T17:50:35;16.30;75.66
65864;SHT30;52639;51.180;20.460;2023-09-07T17:54:40;16.16;76.00
65864;SHT30;52639;51.180;20.460;2023-09-07T17:58:46;15.98;76.60
65864;SHT30;52639;51.180;20.460;2023-09-07T18:02:59;15.82;76.91
65864;SHT30;52639;51.180;20.460;2023-09-07T18:07:05;15.71;77.20
65864;SHT30;52639;51.180;20.460;2023-09-07T18:11:11;15.57;77.57
65864;SHT30;52639;51.180;20.460;2023-09-07T18:15:21;15.38;77.99
65864;SHT30;52639;51.180;20.460;2023-09-07T18:19:28;15.36;78.00
65864;SHT30;52639;51.180;20.460;2023-09-07T18:23:37;15.38;78.04
65864;SHT30;52639;51.180;20.460;2023-09-07T18:27:42;15.23;78.50
65864;SHT30;52639;51.180;20.460;2023-09-07T18:31:47;14.86;79.36
65864;SHT30;52639;51.180;20.460;2023-09-07T18:36:03;14.87;79.41
65864;SHT30;52639;51.180;20.460;2023-09-07T18:40:11;14.72;79.73
65864;SHT30;52639;51.180;20.460;2023-09-07T18:44:18;14.61;79.96
65864;SHT30;52639;51.180;20.460;2023-09-07T18:48:24;14.43;80.19
65864;SHT30;52639;51.180;20.460;2023-09-07T18:52:47;14.59;79.75
65864;SHT30;52639;51.180;20.460;2023-09-07T18:57:27;14.49;80.50
65864;SHT30;52639;51.180;20.460;2023-09-07T19:02:01;14.26;80.61
65864;SHT30;52639;51.180;20.460;2023-09-07T19:06:34;14.32;80.41
65864;SHT30;52639;51.180;20.460;2023-09-07T19:10:52;14.31;80.52
65864;SHT30;52639;51.180;20.460;2023-09-07T19:15:11;14.29;80.66
65864;SHT30;52639;51.180;20.460;2023-09-07T19:19:17;14.24;80.99
65864;SHT30;52639;51.180;20.460;2023-09-07T19:23:22;14.09;81.34
65864;SHT30;52639;51.180;20.460;2023-09-07T19:27:31;13.95;81.55
65864;SHT30;52639;51.180;20.460;2023-09-07T19:31:39;13.92;81.72
65864;SHT30;52639;51.180;20.460;2023-09-07T19:35:44;13.89;81.82
65864;SHT30;52639;51.180;20.460;2023-09-07T19:39:48;13.84;82.06
65864;SHT30;52639;51.180;20.460;2023-09-07T19:43:55;13.75;82.38
65864;SHT30;52639;51.180;20.460;2023-09-07T19:48:03;13.73;82.43
65864;SHT30;52639;51.180;20.460;2023-09-07T19:52:15;13.71;82.53
65864;SHT30;52639;51.180;20.460;2023-09-07T19:56:26;13.63;82.68
65864;SHT30;52639;51.180;20.460;2023-09-07T20:00:33;13.61;82.78
65864;SHT30;52639;51.180;20.460;2023-09-07T20:04:39;13.60;82.75
65864;SHT30;52639;51.180;20.460;2023-09-07T20:08:59;13.34;83.40
65864;SHT30;52639;51.180;20.460;2023-09-07T20:13:08;13.23;83.57
65864;SHT30;52639;51.180;20.460;2023-09-07T20:17:14;13.19;83.74
65864;SHT30;52639;51.180;20.460;2023-09-07T20:21:27;13.20;83.56
65864;SHT30;52639;51.180;20.460;2023-09-07T20:25:31;13.17;83.72
65864;SHT30;52639;51.180;20.460;2023-09-07T20:29:38;12.95;84.00
65864;SHT30;52639;51.180;20.460;2023-09-07T20:33:43;12.82;84.31
65864;SHT30;52639;51.180;20.460;2023-09-07T20:37:52;12.86;84.16
65864;SHT30;52639;51.180;20.460;2023-09-07T20:41:56;12.90;84.04
65864;SHT30;52639;51.180;20.460;2023-09-07T20:46:03;12.86;84.13
65864;SHT30;52639;51.180;20.460;2023-09-07T20:50:07;12.85;84.37
65864;SHT30;52639;51.180;20.460;2023-09-07T20:54:14;12.79;84.39
65864;SHT30;52639;51.180;20.460;2023-09-07T20:58:19;12.68;84.59
65864;SHT30;52639;51.180;20.460;2023-09-07T21:02:21;12.63;84.78
65864;SHT30;52639;51.180;20.460;2023-09-07T21:06:25;12.62;84.74
65864;SHT30;52639;51.180;20.460;2023-09-07T21:10:30;12.58;84.74
65864;SHT30;52639;51.180;20.460;2023-09-07T21:14:33;12.49;85.04
65864;SHT30;52639;51.180;20.460;2023-09-07T21:18:36;12.29;85.36
65864;SHT30;52639;51.180;20.460;2023-09-07T21:27:15;12.22;85.42
65864;SHT30;52639;51.180;20.460;2023-09-07T21:31:18;12.31;85.22
65864;SHT30;52639;51.180;20.460;2023-09-07T21:35:21;12.35;85.17
65864;SHT30;52639;51.180;20.460;2023-09-07T21:39:24;12.45;84.87
65864;SHT30;52639;51.180;20.460;2023-09-07T21:43:28;12.44;85.09
65864;SHT30;52639;51.180;20.460;2023-09-07T21:47:31;12.31;85.41
65864;SHT30;52639;51.180;20.460;2023-09-07T21:51:34;12.13;85.78
65864;SHT30;52639;51.180;20.460;2023-09-07T21:55:37;12.01;86.01
65864;SHT30;52639;51.180;20.460;2023-09-07T21:59:42;11.93;86.18
65864;SHT30;52639;51.180;20.460;2023-09-07T22:03:44;11.75;86.44
65864;SHT30;52639;51.180;20.460;2023-09-07T22:07:48;11.70;86.44
65864;SHT30;52639;51.180;20.460;2023-09-07T22:11:53;11.74;86.24
65864;SHT30;52639;51.180;20.460;2023-09-07T22:15:58;11.87;85.93
65864;SHT30;52639;51.180;20.460;2023-09-07T22:20:02;11.71;86.19
65864;SHT30;52639;51.180;20.460;2023-09-07T22:24:08;11.78;86.14
65864;SHT30;52639;51.180;20.460;2023-09-07T22:28:11;11.70;86.19
65864;SHT30;52639;51.180;20.460;2023-09-07T22:32:19;11.67;86.16
65864;SHT30;52639;51.180;20.460;2023-09-07T22:36:22;11.64;86.32
65864;SHT30;52639;51.180;20.460;2023-09-07T22:40:25;11.63;86.35
65864;SHT30;52639;51.180;20.460;2023-09-07T22:44:40;11.66;86.22
65864;SHT30;52639;51.180;20.460;2023-09-07T22:48:44;11.61;86.33
65864;SHT30;52639;51.180;20.460;2023-09-07T22:52:47;11.57;86.57
65864;SHT30;52639;51.180;20.460;2023-09-07T22:56:50;11.52;86.47
65864;SHT30;52639;51.180;20.460;2023-09-07T23:00:54;11.39;86.93
65864;SHT30;52639;51.180;20.460;2023-09-07T23:05:00;11.32;86.84
65864;SHT30;52639;51.180;20.460;2023-09-07T23:09:03;11.34;87.03
65864;SHT30;52639;51.180;20.460;2023-09-07T23:13:08;11.44;86.66
65864;SHT30;52639;51.180;20.460;2023-09-07T23:17:11;11.37;86.70
65864;SHT30;52639;51.180;20.460;2023-09-07T23:21:18;11.36;86.84
65864;SHT30;52639;51.180;20.460;2023-09-07T23:36:16;11.08;87.24
65864;SHT30;52639;51.180;20.460;2023-09-07T23:40:22;11.10;87.04
65864;SHT30;52639;51.180;20.460;2023-09-07T23:44:39;11.16;87.03
65864;SHT30;52639;51.180;20.460;2023-09-07T23:48:51;11.26;86.83
65864;SHT30;52639;51.180;20.460;2023-09-07T23:52:56;11.29;86.92
65864;SHT30;52639;51.180;20.460;2023-09-07T23:56:59;11.27;87.01
